createdAt,value
2022-10-13T00:00:59.186Z,102088.03
2022-10-13T00:03:25.923Z,102083.25
2022-10-13T00:05:52.256Z,102084.88
2022-10-13T00:08:22.192Z,102078.47
2022-10-13T00:10:50.731Z,102065.09
2022-10-13T00:13:17.562Z,102058.69
2022-10-13T00:15:45.612Z,102064.63
2022-10-13T00:18:12.722Z,102059.63
2022-10-13T00:20:48.584Z,102061.25
2022-10-13T00:23:16.580Z,102069.28
2022-10-13T00:25:44.460Z,102061.84
2022-10-13T00:28:11.345Z,102066.94
2022-10-13T00:30:38.544Z,102065.06
2022-10-13T00:33:05.454Z,102064.84
2022-10-13T00:35:32.074Z,102060.53
2022-10-13T00:37:58.427Z,102062.97
2022-10-13T00:40:24.862Z,102056.81
2022-10-13T00:42:51.237Z,102050.41
2022-10-13T00:45:17.515Z,102059.25
2022-10-13T00:47:51.773Z,102058.66
2022-10-13T00:50:24.070Z,102059.25
2022-10-13T00:52:52.721Z,102055.75
2022-10-13T00:55:24.113Z,102052.03
2022-10-13T00:57:54.911Z,102049.34
2022-10-13T01:00:23.182Z,102051.00
2022-10-13T01:02:50.092Z,102052.13
2022-10-13T01:05:18.169Z,102052.72
2022-10-13T01:07:48.666Z,102055.16
2022-10-13T01:10:24.681Z,102054.59
2022-10-13T01:13:10.185Z,102060.75
2022-10-13T01:15:42.972Z,102055.97
2022-10-13T01:18:24.108Z,102046.63
2022-10-13T01:20:53.580Z,102049.69
2022-10-13T01:23:34.876Z,102048.59
2022-10-13T01:26:34.702Z,102051.88
2022-10-13T01:29:31.104Z,102045.22
2022-10-13T01:32:00.382Z,102040.44
2022-10-13T01:34:36.137Z,102044.53
2022-10-13T01:37:18.848Z,102047.19
2022-10-13T01:39:55.100Z,102044.53
2022-10-13T01:42:30.992Z,102044.06
2022-10-13T01:45:01.593Z,102047.28
2022-10-13T01:47:31.521Z,102036.91
2022-10-13T01:49:59.403Z,102044.97
2022-10-13T01:52:32.246Z,102038.09
2022-10-13T01:55:08.613Z,102037.28
2022-10-13T01:57:39.481Z,102033.56
2022-10-13T02:00:12.659Z,102030.88
2022-10-13T02:03:06.734Z,102038.09
2022-10-13T02:06:06.935Z,102029.25
2022-10-13T02:08:42.155Z,102020.94
2022-10-13T02:11:20.283Z,102011.63
2022-10-13T02:14:01.710Z,101972.22
2022-10-13T02:16:33.913Z,101992.03
2022-10-13T02:19:03.456Z,101988.56
2022-10-13T02:21:30.917Z,101998.22
2022-10-13T02:23:57.755Z,102009.50
2022-10-13T02:26:25.052Z,102011.97
2022-10-13T02:28:51.796Z,102005.53
2022-10-13T02:31:18.152Z,102002.88
2022-10-13T02:33:44.503Z,102005.53
2022-10-13T02:36:10.883Z,101999.34
2022-10-13T02:38:37.192Z,101996.44
2022-10-13T02:41:03.560Z,102001.56
2022-10-13T02:43:30.008Z,101994.09
2022-10-13T02:45:56.309Z,101993.63
2022-10-13T02:48:22.619Z,101986.38
2022-10-13T02:50:48.974Z,101984.53
2022-10-13T02:53:15.320Z,101971.66
2022-10-13T02:55:41.648Z,101970.63
2022-10-13T02:58:08.051Z,101953.25
2022-10-13T03:00:34.428Z,101930.16
2022-10-13T03:03:00.752Z,101937.38
2022-10-13T03:05:27.057Z,101941.94
2022-10-13T03:07:53.351Z,101949.72
2022-10-13T03:10:19.746Z,101947.63
2022-10-13T03:12:46.131Z,101964.78
2022-10-13T03:15:12.644Z,101964.78
2022-10-13T03:17:39.160Z,101953.00
2022-10-13T03:20:06.748Z,101958.94
2022-10-13T03:22:33.569Z,101966.66
2022-10-13T03:25:00.492Z,101973.06
2022-10-13T03:27:26.820Z,101978.19
2022-10-13T03:29:53.159Z,101973.16
2022-10-13T03:32:19.737Z,101966.16
2022-10-13T03:34:46.187Z,101962.19
2022-10-13T03:37:12.496Z,101960.88
2022-10-13T03:39:38.885Z,101942.09
2022-10-13T03:42:05.254Z,101938.38
2022-10-13T03:44:31.644Z,101938.38
2022-10-13T03:46:57.995Z,101935.13
2022-10-13T03:49:24.323Z,101937.81
2022-10-13T03:51:50.711Z,101925.19
2022-10-13T03:54:17.140Z,101924.97
2022-10-13T03:56:43.559Z,101931.13
2022-10-13T03:59:12.385Z,101933.00
2022-10-13T04:01:39.889Z,101931.97
2022-10-13T04:04:07.778Z,101937.31
2022-10-13T04:06:34.129Z,101929.84
2022-10-13T04:09:00.452Z,101920.75
2022-10-13T04:11:26.829Z,101927.72
2022-10-13T04:13:53.328Z,101923.16
2022-10-13T04:16:23.457Z,101927.22
2022-10-13T04:18:58.640Z,101920.00
2022-10-13T04:21:26.130Z,101919.75
2022-10-13T04:23:58.432Z,101906.09
2022-10-13T04:26:27.531Z,101898.59
2022-10-13T04:28:55.135Z,101895.13
2022-10-13T04:31:23.261Z,101892.19
2022-10-13T04:33:50.395Z,101900.25
2022-10-13T04:36:18.272Z,101893.81
2022-10-13T04:38:44.842Z,101897.06
2022-10-13T04:41:12.060Z,101894.13
2022-10-13T04:43:38.376Z,101896.81
2022-10-13T04:46:07.661Z,101899.50
2022-10-13T04:48:34.439Z,101908.59
2022-10-13T04:51:07.008Z,101909.91
2022-10-13T04:53:33.969Z,101921.22
2022-10-13T04:56:05.719Z,101920.66
2022-10-13T04:58:32.410Z,101927.63
2022-10-13T05:00:58.965Z,101922.28
2022-10-13T05:03:26.049Z,101920.66
2022-10-13T05:05:53.499Z,101921.47
2022-10-13T05:08:20.156Z,101915.84
2022-10-13T05:11:02.435Z,101909.44
2022-10-13T05:13:29.933Z,101913.16
2022-10-13T05:15:56.524Z,101910.22
2022-10-13T05:18:23.394Z,101913.47
2022-10-13T05:20:50.207Z,101910.56
2022-10-13T05:23:16.715Z,101912.19
2022-10-13T05:25:43.146Z,101914.63
2022-10-13T05:28:09.568Z,101920.00
2022-10-13T05:30:35.964Z,101921.63
2022-10-13T05:33:02.336Z,101921.38
2022-10-13T05:35:28.915Z,101911.19
2022-10-13T05:37:55.389Z,101906.41
2022-10-13T05:40:21.757Z,101905.34
2022-10-13T05:42:52.395Z,101899.50
2022-10-13T05:45:19.961Z,101900.28
2022-10-13T05:47:46.318Z,101900.03
2022-10-13T05:50:12.989Z,101908.09
2022-10-13T05:52:39.649Z,101901.13
2022-10-13T05:55:10.011Z,101905.97
2022-10-13T05:57:45.692Z,101905.97
2022-10-13T06:00:15.871Z,101898.75
2022-10-13T06:02:54.450Z,101897.91
2022-10-13T06:05:24.281Z,101900.13
2022-10-13T06:07:50.812Z,101890.22
2022-10-13T06:10:17.972Z,101897.75
2022-10-13T06:12:44.486Z,101894.84
2022-10-13T06:15:11.133Z,101890.25
2022-10-13T06:17:38.999Z,101873.94
2022-10-13T06:20:06.852Z,101872.03
2022-10-13T06:22:34.237Z,101870.72
2022-10-13T06:25:00.823Z,101853.56
2022-10-13T06:27:27.296Z,101859.75
2022-10-13T06:29:54.300Z,101872.13
2022-10-13T06:32:21.196Z,101876.66
2022-10-13T06:34:47.702Z,101872.13
2022-10-13T06:37:14.229Z,101861.38
2022-10-13T06:39:40.539Z,101856.56
2022-10-13T06:42:06.927Z,101857.13
2022-10-13T06:44:33.680Z,101862.50
2022-10-13T06:47:00.797Z,101874.84
2022-10-13T06:49:27.115Z,101880.78
2022-10-13T06:51:53.659Z,101883.16
2022-10-13T06:54:20.007Z,101893.91
2022-10-13T06:56:46.337Z,101898.22
2022-10-13T06:59:12.854Z,101906.59
2022-10-13T07:01:41.759Z,101892.09
2022-10-13T07:04:09.094Z,101904.19
2022-10-13T07:06:35.563Z,101896.47
2022-10-13T07:09:06.540Z,101888.97
2022-10-13T07:11:33.121Z,101881.47
2022-10-13T07:16:31.463Z,101884.47
2022-10-13T07:18:57.827Z,101879.44
2022-10-13T07:21:24.182Z,101882.66
2022-10-13T07:23:50.500Z,101885.69
2022-10-13T07:26:16.914Z,101881.41
2022-10-13T07:28:44.653Z,101883.59
2022-10-13T07:31:20.180Z,101880.41
2022-10-13T07:33:49.060Z,101869.97
2022-10-13T07:36:15.396Z,101879.97
2022-10-13T07:38:41.725Z,101878.97
2022-10-13T07:41:10.677Z,101881.69
2022-10-13T07:43:37.072Z,101883.88
2022-10-13T07:46:05.021Z,101879.66
2022-10-13T07:48:31.784Z,101882.38
2022-10-13T07:50:58.270Z,101882.44
2022-10-13T07:53:24.685Z,101880.31
2022-10-13T07:55:51.021Z,101880.63
2022-10-13T07:58:17.564Z,101883.59
2022-10-13T08:00:44.047Z,101880.41
2022-10-13T08:03:10.505Z,101872.63
2022-10-13T08:05:38.136Z,101871.63
2022-10-13T08:08:04.832Z,101880.53
2022-10-13T08:10:31.298Z,101889.19
2022-10-13T08:12:57.688Z,101873.34
2022-10-13T08:15:24.015Z,101868.81
2022-10-13T08:17:50.335Z,101868.88
2022-10-13T08:20:16.794Z,101865.19
2022-10-13T08:22:43.160Z,101865.81
2022-10-13T08:25:10.136Z,101868.63
2022-10-13T08:27:50.298Z,101860.88
2022-10-13T08:30:17.479Z,101866.69
2022-10-13T08:32:43.873Z,101866.19
2022-10-13T08:35:10.561Z,101863.22
2022-10-13T08:37:36.904Z,101858.94
2022-10-13T08:40:03.493Z,101866.75
2022-10-13T08:42:29.872Z,101868.38
2022-10-13T08:45:22.273Z,101864.06
2022-10-13T08:47:52.812Z,101873.78
2022-10-13T08:50:25.491Z,101870.56
2022-10-13T08:52:53.814Z,101875.13
2022-10-13T08:55:40.334Z,101874.31
2022-10-13T08:58:14.662Z,101861.13
2022-10-13T09:00:42.070Z,101870.25
2022-10-13T09:03:22.282Z,101867.00
2022-10-13T09:05:59.544Z,101846.81
2022-10-13T09:08:28.422Z,101856.00
2022-10-13T09:10:54.887Z,101852.50
2022-10-13T09:13:21.349Z,101861.94
2022-10-13T09:15:52.649Z,101859.50
2022-10-13T09:18:19.020Z,101855.75
2022-10-13T09:20:45.560Z,101859.53
2022-10-13T09:23:22.963Z,101854.94
2022-10-13T09:25:52.002Z,101851.38
2022-10-13T09:28:28.627Z,101854.91
2022-10-13T09:31:25.299Z,101847.06
2022-10-13T09:34:13.134Z,101859.47
2022-10-13T09:36:39.625Z,101850.31
2022-10-13T09:39:17.016Z,101853.28
2022-10-13T09:41:44.007Z,101848.44
2022-10-13T09:44:30.684Z,101851.41
2022-10-13T09:46:59.292Z,101850.88
2022-10-13T09:49:31.612Z,101859.53
2022-10-13T09:52:04.935Z,101847.69
2022-10-13T09:54:47.472Z,101851.75
2022-10-13T09:57:35.612Z,101852.03
2022-10-13T10:00:19.178Z,101847.72
2022-10-13T10:02:59.835Z,101845.56
2022-10-13T10:05:48.103Z,101853.38
2022-10-13T10:08:22.558Z,101842.34
2022-10-13T10:10:56.163Z,101850.66
2022-10-13T10:13:24.635Z,101845.81
2022-10-13T10:16:22.057Z,101839.88
2022-10-13T10:18:58.758Z,101845.28
2022-10-13T10:21:31.315Z,101843.94
2022-10-13T10:24:08.571Z,101839.88
2022-10-13T10:26:57.494Z,101839.59
2022-10-13T10:29:44.689Z,101827.69
2022-10-13T10:32:28.472Z,101835.25
2022-10-13T10:35:02.059Z,101837.91
2022-10-13T10:37:33.994Z,101831.94
2022-10-13T10:40:16.471Z,101828.38
2022-10-13T10:43:04.572Z,101824.84
2022-10-13T10:45:37.318Z,101833.69
2022-10-13T10:48:18.276Z,101827.16
2022-10-13T10:50:44.815Z,101827.63
2022-10-13T10:53:46.395Z,101831.97
2022-10-13T10:56:38.435Z,101826.84
2022-10-13T10:59:52.681Z,101819.84
2022-10-13T11:02:48.537Z,101821.66
2022-10-13T11:05:16.252Z,101821.16
2022-10-13T11:07:42.987Z,101818.44
2022-10-13T11:10:17.984Z,101811.47
2022-10-13T11:13:08.648Z,101810.88
2022-10-13T11:15:44.813Z,101810.56
2022-10-13T11:19:09.528Z,101812.78
2022-10-13T11:21:53.944Z,101805.56
2022-10-13T11:24:42.022Z,101810.31
2022-10-13T11:27:08.288Z,101805.34
2022-10-13T11:29:47.016Z,101812.03
2022-10-13T11:32:25.718Z,101817.56
2022-10-13T11:34:58.006Z,101811.56
2022-10-13T11:37:32.043Z,101805.38
2022-10-13T11:40:15.235Z,101798.91
2022-10-13T11:43:11.834Z,101798.91
2022-10-13T11:46:11.688Z,101795.66
2022-10-13T11:48:43.796Z,101800.28
2022-10-13T11:52:06.473Z,101791.16
2022-10-13T11:54:36.515Z,101795.53
2022-10-13T11:57:04.555Z,101791.47
2022-10-13T11:59:32.607Z,101786.34
2022-10-13T12:02:19.632Z,101781.78
2022-10-13T12:05:03.976Z,101779.91
2022-10-13T12:07:41.096Z,101776.97
2022-10-13T12:10:16.553Z,101777.22
2022-10-13T12:12:50.172Z,101779.69
2022-10-13T12:15:30.122Z,101778.34
2022-10-13T12:17:56.481Z,101777.25
2022-10-13T12:20:26.251Z,101778.59
2022-10-13T12:22:54.051Z,101774.78
2022-10-13T12:25:29.650Z,101772.34
2022-10-13T12:27:59.826Z,101769.66
2022-10-13T12:30:30.908Z,101761.84
2022-10-13T12:32:59.617Z,101767.81
2022-10-13T12:35:29.394Z,101763.22
2022-10-13T12:37:57.517Z,101765.09
2022-10-13T12:40:25.092Z,101757.78
2022-10-13T12:42:51.609Z,101766.72
2022-10-13T12:45:20.991Z,101755.13
2022-10-13T12:47:53.135Z,101761.59
2022-10-13T12:50:25.250Z,101765.09
2022-10-13T12:52:54.746Z,101761.91
2022-10-13T12:55:23.033Z,101758.91
2022-10-13T12:57:51.045Z,101760.00
2022-10-13T13:00:23.848Z,101761.63
2022-10-13T13:02:53.261Z,101760.81
2022-10-13T13:05:29.593Z,101764.59
2022-10-13T13:07:56.004Z,101763.81
2022-10-13T13:10:22.604Z,101764.66
2022-10-13T13:12:51.020Z,101767.34
2022-10-13T13:15:37.957Z,101763.84
2022-10-13T13:18:23.172Z,101758.47
2022-10-13T13:20:49.647Z,101760.88
2022-10-13T13:23:18.911Z,101761.69
2022-10-13T13:25:46.194Z,101753.59
2022-10-13T13:28:14.722Z,101757.94
2022-10-13T13:30:41.345Z,101759.53
2022-10-13T13:35:38.248Z,101748.47
2022-10-13T13:38:05.136Z,101753.03
2022-10-13T13:40:31.594Z,101750.34
2022-10-13T13:42:58.002Z,101748.16
2022-10-13T13:45:27.322Z,101744.94
2022-10-13T13:47:57.924Z,101736.00
2022-10-13T13:50:32.986Z,101738.97
2022-10-13T13:52:59.658Z,101732.47
2022-10-13T13:55:27.422Z,101731.94
2022-10-13T13:57:53.803Z,101736.25
2022-10-13T14:00:20.512Z,101737.31
2022-10-13T14:02:47.619Z,101737.06
2022-10-13T14:05:14.123Z,101729.47
2022-10-13T14:07:41.430Z,101725.38
2022-10-13T14:10:09.342Z,101725.88
2022-10-13T14:12:36.263Z,101719.44
2022-10-13T14:15:02.764Z,101715.13
2022-10-13T14:17:29.137Z,101711.91
2022-10-13T14:19:55.492Z,101703.19
2022-10-13T14:22:22.907Z,101699.41
2022-10-13T14:24:49.586Z,101709.66
2022-10-13T14:27:15.942Z,101701.63
2022-10-13T14:29:42.369Z,101708.91
2022-10-13T14:32:08.700Z,101704.59
2022-10-13T14:34:35.089Z,101706.50
2022-10-13T14:37:01.488Z,101698.16
2022-10-13T14:39:27.902Z,101691.94
2022-10-13T14:41:54.614Z,101695.69
2022-10-13T14:44:20.989Z,101690.84
2022-10-13T14:46:47.398Z,101690.88
2022-10-13T14:49:13.898Z,101686.00
2022-10-13T14:51:40.220Z,101689.50
2022-10-13T14:54:06.911Z,101687.38
2022-10-13T14:56:34.574Z,101689.53
2022-10-13T14:59:03.064Z,101690.34
2022-10-13T15:01:29.931Z,101683.88
2022-10-13T15:03:56.639Z,101699.78
2022-10-13T15:06:25.304Z,101687.66
2022-10-13T15:08:51.743Z,101688.50
2022-10-13T15:11:20.178Z,101683.34
2022-10-13T15:13:46.906Z,101687.13
2022-10-13T15:16:18.824Z,101677.44
2022-10-13T15:18:45.545Z,101676.34
2022-10-13T15:21:12.005Z,101678.00
2022-10-13T15:23:39.384Z,101677.72
2022-10-13T15:26:06.190Z,101684.75
2022-10-13T15:28:38.593Z,101678.84
2022-10-13T15:31:05.474Z,101678.56
2022-10-13T15:33:32.431Z,101685.03
2022-10-13T15:35:58.960Z,101680.47
2022-10-13T15:38:25.912Z,101679.94
2022-10-13T15:40:52.399Z,101679.69
2022-10-13T15:43:19.312Z,101671.59
2022-10-13T15:45:55.428Z,101672.13
2022-10-13T15:48:21.839Z,101669.19
2022-10-13T15:50:48.234Z,101668.88
2022-10-13T15:53:14.698Z,101665.38
2022-10-13T15:55:41.032Z,101667.81
2022-10-13T15:58:13.438Z,101680.19
2022-10-13T16:00:40.952Z,101666.19
2022-10-13T16:03:07.609Z,101664.56
2022-10-13T16:05:33.935Z,101666.72
2022-10-13T16:08:00.351Z,101661.88
2022-10-13T16:10:26.695Z,101665.41
2022-10-13T16:12:53.029Z,101666.22
2022-10-13T16:15:19.958Z,101664.34
2022-10-13T16:17:46.579Z,101667.88
2022-10-13T16:20:13.156Z,101656.84
2022-10-13T16:22:39.470Z,101660.88
2022-10-13T16:25:06.339Z,101655.47
2022-10-13T16:27:32.648Z,101647.38
2022-10-13T16:29:59.343Z,101644.97
2022-10-13T16:32:25.777Z,101646.34
2022-10-13T16:34:52.141Z,101647.91
2022-10-13T16:37:19.028Z,101649.03
2022-10-13T16:39:51.238Z,101651.97
2022-10-13T16:42:18.172Z,101649.28
2022-10-13T16:44:44.508Z,101660.88
2022-10-13T16:47:14.684Z,101660.34
2022-10-13T16:49:43.773Z,101656.56
2022-10-13T16:52:10.346Z,101663.59
2022-10-13T16:54:36.725Z,101663.59
2022-10-13T16:57:03.074Z,101662.50
2022-10-13T16:59:29.460Z,101661.16
2022-10-13T17:01:57.732Z,101663.31
2022-10-13T17:04:24.237Z,101667.38
2022-10-13T17:06:50.576Z,101664.13
2022-10-13T17:09:16.983Z,101671.13
2022-10-13T17:11:43.706Z,101666.56
2022-10-13T17:14:10.826Z,101677.06
2022-10-13T17:16:37.441Z,101679.22
2022-10-13T17:19:03.865Z,101681.38
2022-10-13T17:21:30.323Z,101680.84
2022-10-13T17:23:57.236Z,101681.91
2022-10-13T17:26:24.173Z,101685.19
2022-10-13T17:28:50.724Z,101686.50
2022-10-13T17:31:22.384Z,101694.88
2022-10-13T17:33:50.265Z,101695.94
2022-10-13T17:36:25.643Z,101693.00
2022-10-13T17:38:54.006Z,101694.59
2022-10-13T17:41:20.824Z,101694.06
2022-10-13T17:43:47.740Z,101690.53
2022-10-13T17:46:36.157Z,101695.94
2022-10-13T17:49:04.247Z,101704.00
2022-10-13T17:51:30.662Z,101703.22
2022-10-13T17:53:59.582Z,101698.34
2022-10-13T17:56:26.516Z,101708.34
2022-10-13T17:58:53.348Z,101706.72
2022-10-13T18:01:27.972Z,101713.44
2022-10-13T18:04:02.856Z,101715.59
2022-10-13T18:06:36.727Z,101706.47
2022-10-13T18:09:06.186Z,101710.47
2022-10-13T18:11:32.612Z,101715.31
2022-10-13T18:13:58.943Z,101715.31
2022-10-13T18:16:25.253Z,101726.63
2022-10-13T18:18:53.638Z,101730.66
2022-10-13T18:21:22.545Z,101731.69
2022-10-13T18:23:48.937Z,101727.63
2022-10-13T18:26:17.777Z,101732.47
2022-10-13T18:28:45.770Z,101731.94
2022-10-13T18:31:18.123Z,101738.13
2022-10-13T18:33:45.024Z,101740.03
2022-10-13T18:36:23.928Z,101746.50
2022-10-13T18:38:51.960Z,101756.72
2022-10-13T18:41:21.230Z,101756.16
2022-10-13T18:43:47.936Z,101758.06
2022-10-13T18:46:14.268Z,101763.41
2022-10-13T18:48:41.018Z,101762.06
2022-10-13T18:51:10.465Z,101765.00
2022-10-13T18:53:38.101Z,101771.72
2022-10-13T18:56:07.270Z,101781.91
2022-10-13T18:58:34.501Z,101778.94
2022-10-13T19:01:04.007Z,101785.38
2022-10-13T19:03:32.318Z,101795.59
2022-10-13T19:05:58.904Z,101793.19
2022-10-13T19:08:25.976Z,101782.69
2022-10-13T19:10:52.377Z,101783.75
2022-10-13T19:13:18.728Z,101779.19
2022-10-13T19:15:45.093Z,101782.13
2022-10-13T19:18:11.942Z,101787.47
2022-10-13T19:20:38.492Z,101782.63
2022-10-13T19:23:04.842Z,101770.50
2022-10-13T19:25:31.357Z,101783.69
2022-10-13T19:27:57.815Z,101782.31
2022-10-13T19:30:26.623Z,101789.84
2022-10-13T19:32:53.037Z,101783.91
2022-10-13T19:35:19.353Z,101780.38
2022-10-13T19:37:45.656Z,101776.84
2022-10-13T19:40:11.978Z,101773.03
2022-10-13T19:42:38.318Z,101774.34
2022-10-13T19:45:05.768Z,101779.69
2022-10-13T19:47:32.116Z,101788.50
2022-10-13T19:49:58.499Z,101789.56
2022-10-13T19:52:24.932Z,101794.03
2022-10-13T19:54:51.933Z,101804.19
2022-10-13T19:57:18.663Z,101789.91
2022-10-13T19:59:47.654Z,101783.38
2022-10-13T20:02:14.367Z,101781.72
2022-10-13T20:04:40.754Z,101797.25
2022-10-13T20:07:07.115Z,101786.97
2022-10-13T20:09:33.969Z,101790.16
2022-10-13T20:12:00.310Z,101797.06
2022-10-13T20:14:26.765Z,101795.97
2022-10-13T20:16:53.392Z,101796.97
2022-10-13T20:19:19.887Z,101799.38
2022-10-13T20:21:47.954Z,101807.84
2022-10-13T20:24:14.352Z,101807.25
2022-10-13T20:26:40.971Z,101800.19
2022-10-13T20:29:07.822Z,101814.34
2022-10-13T20:31:34.503Z,101816.66
2022-10-13T20:34:00.828Z,101810.94
2022-10-13T20:36:28.465Z,101808.66
2022-10-13T20:38:55.150Z,101812.84
2022-10-13T20:41:26.800Z,101814.09
2022-10-13T20:43:54.652Z,101812.94
2022-10-13T20:46:21.707Z,101822.03
2022-10-13T20:49:09.761Z,101818.25
2022-10-13T20:51:35.512Z,101816.31
2022-10-13T20:54:01.860Z,101825.31
2022-10-13T20:56:28.188Z,101823.66
2022-10-13T20:58:54.584Z,101819.81
2022-10-13T21:01:22.885Z,101822.97
2022-10-13T21:03:53.650Z,101832.34
2022-10-13T21:06:20.514Z,101833.38
2022-10-13T21:08:47.515Z,101831.75
2022-10-13T21:11:15.732Z,101835.97
2022-10-13T21:13:43.910Z,101838.06
2022-10-13T21:16:13.772Z,101845.06
2022-10-13T21:18:44.440Z,101843.69
2022-10-13T21:21:11.309Z,101836.47
2022-10-13T21:23:38.032Z,101840.22
2022-10-13T21:26:06.412Z,101841.47
2022-10-13T21:28:33.540Z,101837.53
2022-10-13T21:31:05.769Z,101844.75
2022-10-13T21:33:35.602Z,101832.97
2022-10-13T21:36:09.396Z,101837.03
2022-10-13T21:38:35.904Z,101826.31
2022-10-13T21:41:10.718Z,101824.31
2022-10-13T21:43:37.057Z,101813.19
2022-10-13T21:46:18.427Z,101819.38
2022-10-13T21:48:46.604Z,101813.19
2022-10-13T21:51:22.115Z,101812.13
2022-10-13T21:54:03.235Z,101811.09
2022-10-13T21:56:30.544Z,101814.34
2022-10-13T21:58:57.228Z,101809.72
2022-10-13T22:01:24.185Z,101815.88
2022-10-13T22:03:54.753Z,101803.53
2022-10-13T22:06:21.245Z,101808.19
2022-10-13T22:08:50.289Z,101807.84
2022-10-13T22:11:17.748Z,101808.00
2022-10-13T22:13:44.330Z,101807.69
2022-10-13T22:16:14.387Z,101801.84
2022-10-13T22:18:41.444Z,101791.34
2022-10-13T22:21:10.457Z,101795.59
2022-10-13T22:23:36.831Z,101798.25
2022-10-13T22:26:03.174Z,101787.28
2022-10-13T22:28:33.454Z,101785.66
2022-10-13T22:31:06.846Z,101784.94
2022-10-13T22:33:34.739Z,101785.75
2022-10-13T22:36:06.149Z,101782.19
2022-10-13T22:38:32.741Z,101784.69
2022-10-13T22:41:03.511Z,101788.66
2022-10-13T22:43:29.881Z,101787.03
2022-10-13T22:45:56.395Z,101788.44
2022-10-13T22:48:22.787Z,101788.09
2022-10-13T22:50:49.146Z,101780.03
2022-10-13T22:53:15.479Z,101786.22
2022-10-13T22:55:42.308Z,101787.03
2022-10-13T22:58:08.724Z,101777.31
2022-10-13T23:00:35.752Z,101782.09
2022-10-13T23:03:02.482Z,101777.44
2022-10-13T23:05:28.942Z,101784.19
2022-10-13T23:07:55.447Z,101779.41
2022-10-13T23:10:21.839Z,101770.72
2022-10-13T23:12:48.340Z,101767.88
2022-10-13T23:15:14.731Z,101762.34
2022-10-13T23:17:41.031Z,101766.09
2022-10-13T23:20:08.753Z,101771.47
2022-10-13T23:22:35.065Z,101769.59
2022-10-13T23:25:01.400Z,101765.22
2022-10-13T23:27:27.808Z,101760.81
2022-10-13T23:29:54.164Z,101753.25
2022-10-13T23:32:20.593Z,101760.00
2022-10-13T23:34:46.920Z,101756.03
2022-10-13T23:37:13.304Z,101753.66
2022-10-13T23:39:39.634Z,101738.97
2022-10-13T23:42:06.062Z,101745.94
2022-10-13T23:44:32.414Z,101748.88
2022-10-13T23:46:58.826Z,101748.94
2022-10-13T23:49:25.152Z,101749.34
2022-10-13T23:51:51.456Z,101751.94
2022-10-13T23:54:17.775Z,101751.59
2022-10-13T23:56:44.196Z,101755.47
2022-10-13T23:59:10.571Z,101763.75
